createdAt,value
2017-10-19T00:01:30.383Z,55.35
2017-10-19T00:05:34.627Z,55.34
2017-10-19T00:09:38.082Z,55.32
2017-10-19T00:13:41.841Z,55.31
2017-10-19T00:17:46.067Z,55.26
2017-10-19T00:21:50.596Z,55.26
2017-10-19T00:25:54.821Z,55.21
2017-10-19T00:29:59.080Z,55.19
2017-10-19T00:34:02.536Z,55.16
2017-10-19T00:38:06.014Z,55.13
2017-10-19T00:42:09.459Z,55.16
2017-10-19T00:46:13.712Z,55.13
2017-10-19T00:50:17.183Z,55.13
2017-10-19T00:54:21.636Z,55.11
2017-10-19T00:58:25.835Z,55.08
2017-10-19T01:02:29.331Z,55.11
2017-10-19T01:06:32.794Z,55.05
2017-10-19T01:10:36.270Z,55.08
2017-10-19T01:14:40.496Z,55.05
2017-10-19T01:18:45.000Z,55.05
2017-10-19T01:22:48.456Z,55.02
2017-10-19T01:26:51.939Z,55.02
2017-10-19T01:30:56.144Z,55.01
2017-10-19T01:34:59.618Z,54.99
2017-10-19T01:39:03.051Z,54.97
2017-10-19T01:43:06.800Z,54.98
2017-10-19T01:47:11.016Z,54.97
2017-10-19T01:51:15.255Z,54.92
2017-10-19T01:55:19.467Z,54.94
2017-10-19T01:59:23.721Z,54.96
2017-10-19T02:03:27.167Z,54.93
2017-10-19T02:07:30.634Z,54.93
2017-10-19T02:11:34.079Z,54.93
2017-10-19T02:15:37.921Z,54.93
2017-10-19T02:19:41.475Z,54.91
2017-10-19T02:23:45.251Z,54.93
2017-10-19T02:27:49.469Z,54.91
2017-10-19T02:31:53.300Z,54.87
2017-10-19T02:35:57.514Z,54.91
2017-10-19T02:40:02.055Z,54.91
2017-10-19T02:44:06.283Z,54.89
2017-10-19T02:48:10.530Z,54.90
2017-10-19T02:52:13.984Z,54.89
2017-10-19T02:56:18.218Z,54.85
2017-10-19T03:00:21.665Z,54.87
2017-10-19T03:04:25.146Z,54.84
2017-10-19T03:08:29.332Z,54.85
2017-10-19T03:12:33.101Z,54.81
2017-10-19T03:16:37.305Z,54.84
2017-10-19T03:20:40.787Z,54.81
2017-10-19T03:24:44.236Z,54.75
2017-10-19T03:28:48.470Z,54.73
2017-10-19T03:32:51.918Z,54.72
2017-10-19T03:36:55.391Z,54.72
2017-10-19T03:40:58.830Z,54.70
2017-10-19T03:45:02.587Z,54.68
2017-10-19T03:49:06.812Z,54.68
2017-10-19T03:53:11.046Z,54.65
2017-10-19T03:57:15.264Z,54.67
2017-10-19T04:01:19.812Z,54.65
2017-10-19T04:05:23.289Z,54.62
2017-10-19T04:09:27.548Z,54.63
2017-10-19T04:13:30.993Z,54.62
2017-10-19T04:17:34.742Z,54.56
2017-10-19T04:21:38.955Z,54.56
2017-10-19T04:25:42.795Z,54.54
2017-10-19T04:29:47.017Z,54.54
2017-10-19T04:33:51.261Z,54.53
2017-10-19T04:37:54.715Z,54.51
2017-10-19T04:41:58.195Z,54.48
2017-10-19T04:46:01.654Z,54.49
2017-10-19T04:50:06.101Z,54.49
2017-10-19T04:54:09.556Z,54.46
2017-10-19T04:58:13.031Z,54.42
2017-10-19T05:02:16.479Z,54.44
2017-10-19T05:06:19.959Z,54.41
2017-10-19T05:10:23.443Z,54.37
2017-10-19T05:14:26.915Z,54.39
2017-10-19T05:18:30.357Z,54.34
2017-10-19T05:22:34.114Z,54.35
2017-10-19T05:26:37.566Z,54.34
2017-10-19T05:30:41.799Z,54.30
2017-10-19T05:34:45.260Z,54.29
2017-10-19T05:38:50.575Z,54.27
2017-10-19T05:42:54.017Z,54.22
2017-10-19T05:46:57.628Z,54.23
2017-10-19T05:51:01.075Z,54.21
2017-10-19T05:55:05.318Z,54.21
2017-10-19T05:59:08.770Z,54.17
2017-10-19T06:03:12.280Z,53.99
2017-10-19T06:07:15.728Z,53.97
2017-10-19T06:11:19.530Z,53.88
2017-10-19T06:15:23.795Z,53.87
2017-10-19T06:19:27.279Z,53.72
2017-10-19T06:23:30.725Z,53.44
2017-10-19T06:27:34.216Z,53.23
2017-10-19T06:31:37.720Z,53.09
2017-10-19T06:35:41.189Z,52.97
2017-10-19T06:39:45.408Z,52.91
2017-10-19T06:43:49.251Z,52.83
2017-10-19T06:47:52.708Z,52.75
2017-10-19T06:51:56.235Z,52.67
2017-10-19T06:55:59.707Z,52.64
2017-10-19T07:00:03.196Z,52.55
2017-10-19T07:04:06.651Z,52.52
2017-10-19T07:08:10.482Z,52.50
2017-10-19T07:12:14.698Z,52.43
2017-10-19T07:16:18.180Z,52.43
2017-10-19T07:20:21.625Z,52.37
2017-10-19T07:24:25.875Z,52.34
2017-10-19T07:28:29.332Z,52.32
2017-10-19T07:32:32.809Z,52.27
2017-10-19T07:36:36.307Z,52.27
2017-10-19T07:40:39.778Z,52.28
2017-10-19T07:44:44.024Z,52.33
2017-10-19T07:48:47.510Z,52.29
2017-10-19T07:52:51.730Z,52.29
2017-10-19T07:56:55.220Z,52.29
2017-10-19T08:00:58.675Z,52.18
2017-10-19T08:05:02.472Z,52.28
2017-10-19T08:09:06.700Z,52.23
2017-10-19T08:13:10.981Z,52.24
2017-10-19T08:17:14.438Z,52.18
2017-10-19T08:21:17.910Z,52.09
2017-10-19T08:25:21.363Z,52.07
2017-10-19T08:29:25.144Z,52.07
2017-10-19T08:33:28.602Z,51.99
2017-10-19T08:37:32.078Z,52.06
2017-10-19T08:41:36.287Z,52.31
2017-10-19T08:45:40.826Z,52.31
2017-10-19T08:49:45.046Z,52.27
2017-10-19T08:53:49.295Z,52.28
2017-10-19T08:57:52.718Z,52.30
2017-10-19T09:01:56.608Z,52.28
2017-10-19T09:06:00.823Z,52.31
2017-10-19T09:10:05.350Z,52.38
2017-10-19T09:14:09.582Z,52.38
2017-10-19T09:18:13.828Z,52.38
2017-10-19T09:22:17.280Z,52.40
2017-10-19T09:26:20.778Z,52.43
2017-10-19T09:30:24.236Z,52.46
2017-10-19T09:34:28.862Z,52.48
2017-10-19T09:38:33.147Z,52.50
2017-10-19T09:42:36.625Z,52.52
2017-10-19T09:46:40.146Z,52.55
2017-10-19T09:50:43.624Z,52.58
2017-10-19T09:54:47.080Z,52.61
2017-10-19T09:58:51.261Z,52.60
2017-10-19T10:02:54.705Z,52.62
2017-10-19T10:06:58.155Z,52.61
2017-10-19T10:11:02.376Z,52.65
2017-10-19T10:15:06.619Z,52.63
2017-10-19T10:19:10.827Z,52.64
2017-10-19T10:23:15.063Z,52.63
2017-10-19T10:27:19.274Z,52.64
2017-10-19T10:31:23.522Z,52.66
2017-10-19T10:35:27.026Z,52.65
2017-10-19T10:39:30.504Z,52.66
2017-10-19T10:43:33.948Z,52.68
2017-10-19T10:47:37.427Z,52.65
2017-10-19T10:51:40.869Z,52.66
2017-10-19T10:55:44.353Z,52.69
2017-10-19T10:59:48.575Z,52.73
2017-10-19T11:03:52.843Z,52.72
2017-10-19T11:07:56.297Z,52.70
2017-10-19T11:11:59.865Z,52.73
2017-10-19T11:16:03.314Z,52.79
2017-10-19T11:20:06.795Z,52.82
2017-10-19T11:24:10.254Z,52.75
2017-10-19T11:28:13.774Z,52.72
2017-10-19T11:32:17.222Z,52.75
2017-10-19T11:36:20.693Z,52.73
2017-10-19T11:40:24.134Z,52.68
2017-10-19T11:44:27.613Z,52.61
2017-10-19T11:48:31.072Z,52.57
2017-10-19T11:52:34.551Z,52.49
2017-10-19T11:56:38.011Z,52.45
2017-10-19T12:00:41.492Z,52.41
2017-10-19T12:04:44.952Z,52.39
2017-10-19T12:08:48.439Z,52.37
2017-10-19T12:12:51.898Z,52.32
2017-10-19T12:16:55.391Z,51.80
2017-10-19T12:20:58.884Z,52.21
2017-10-19T12:25:02.345Z,52.28
2017-10-19T12:29:06.588Z,52.60
2017-10-19T12:33:10.071Z,52.53
2017-10-19T12:37:13.521Z,52.49
2017-10-19T12:41:17.006Z,52.45
2017-10-19T12:45:21.211Z,52.45
2017-10-19T12:49:24.681Z,52.45
2017-10-19T12:53:28.128Z,52.44
2017-10-19T12:57:32.370Z,52.44
2017-10-19T13:01:36.652Z,52.43
2017-10-19T13:05:40.138Z,52.43
2017-10-19T13:09:43.595Z,52.46
2017-10-19T13:13:47.847Z,52.49
2017-10-19T13:17:51.298Z,52.48
2017-10-19T13:21:54.780Z,52.48
2017-10-19T13:25:58.288Z,52.47
2017-10-19T13:30:01.833Z,52.50
2017-10-19T13:34:05.282Z,52.52
2017-10-19T13:38:08.759Z,52.49
2017-10-19T13:42:12.227Z,52.47
2017-10-19T13:46:15.792Z,52.45
2017-10-19T13:50:20.017Z,52.51
